イースター島 の空港の天気 - METARとTAF

マタベリ国際空港 ( SCIP / IPC ) - チリ イースター島
飛行場実況気象(Metar)
観測時間06/24 03:00 EAT (06/24 09:00 UTC)
風向・風速東南東 6m/s
視程10km以上
天気現象
全天の4割程度の雲 雲底高度 610m
全天の8割程度の雲 雲底高度 1520m
気温17℃
湿度77%
気圧1031hPa
METARSCIP 240900Z 12011KT 9999 SCT020 BKN050 17/13 Q1031 NOSIG
過去の天気等 Google飛行場航空写真 Wunderground天気予報

過去48時間のMETAR

飛行場予報(TAF)
発表時間: 6/23 22:30 EAT (6/24 04:30 UTC)
予報対象時間: 24日0時 EAT ~ 25日0時 EAT
風向・風速東南東 5m/s
視程10km以上
全天の4割程度の雲 雲底高度 760m
全天の8割程度の雲 雲底高度 1220m
24日4時 EAT ~ 24日8時 EAT に一時的に
風向・風速東 8m/s
視程7000m
天気現象弱いしゅう雨
全天の8割程度の雲 雲底高度 610m
24日9時 EAT ~ 24日11時 EAT に徐々に
風向・風速東 8m/s
24日14時 EAT ~ 24日19時 EAT に一時的に
風向・風速東 8m/s
視程7000m
天気現象弱いしゅう雨
全天の8割程度の雲 雲底高度 610m
24日20時 EAT ~ 24日22時 EAT に徐々に
風向・風速東 5m/s
TAF SCIP 240430Z 2406/2506 11010KT 9999 SCT025 BKN040 TN17/2410Z TX20/2418Z
TEMPO 2410/2414 10015KT 7000 -SHRA BKN020
BECMG 2415/2417 10015KT
TEMPO 2420/2501 10015KT 7000 -SHRA BKN020
BECMG 2502/2504 09010KT